Gaylord, MI

8:23 PM EDT on September 30, 2014 (GMT -0400)
GAYLORD ALPINE CENTER | Change Station
CLOSE
Current Station
Personal Weather Station
Location: Gaylord, MI
Elevation: 1385 ft
Nearby Weather Stations

Elev 1385 ft 45.04 °N, 84.67 °W | Updated 7 minutes ago

Overcast
Overcast
46.0 °F
Feels Like 42 °F
N
7.3
Wind Variable Wind from West

Today
High -- | Low -- °F
--% Chance of Precip.
Yesterday
High -- | Low -- °F
Precip. -- in
7:35 AM 7:21 PM
Waxing Crescent, 41% visible
Pressure 30.09 in
Visibility 10.0 miles
Clouds Overcast 400 ft
Windchill 42 °F
Dew Point 45 °F
Humidity 97%
Rainfall 0.00 in
Snow Depth Not available.
UV 0 out of 12
Pollen 2.00 out of 12
Ozone Good
PM2.5 Good
Flu Activity Not available.
METAR KGLR 302353Z AUTO 04005KT 10SM OVC004 08/07 A3006 RMK AO2 SLP187 T00830072 10089 20083 53009

More Conditions Fewer Conditions

Pressure 30.09 in
Visibility 10.0 miles
Clouds Overcast 400 ft
Windchill 42 °F
Dew Point 45 °F
Humidity 97%
Rainfall 0.00 in
Snow Depth Not available.
UV 0 out of 12
Pollen 2.00 out of 12
Ozone Good
PM2.5 Good
Flu Activity Not available.
METAR KGLR 302353Z AUTO 04005KT 10SM OVC004 08/07 A3006 RMK AO2 SLP187 T00830072 10089 20083 53009

More Conditions Fewer Conditions

Nowcast | as of 8:00 PM EDT on September 30, 2014

At 9 PM...cloudy. Periods of drizzle. Temperature 47. Northeast winds 6 mph. At 11 PM...cloudy. Periods of drizzle. Temperature 47. East winds 5 mph. At 1 am...cloudy. Periods of drizzle. Temperature 46. East winds 5 mph. At 3 am...cloudy. Periods of drizzle. Temperature 46. East winds 5 mph.

×

10-Day Weather Forecast

Almanac

Astronomy

Sep. 30, 2014 Rise Set
Actual Time 7:35 AM EDT 7:21 PM EDT
Civil Twilight 7:06 AM EDT 7:50 PM EDT
Nautical Twilight 6:32 AM EDT 8:24 PM EDT
Astronomical Twilight 5:57 AM EDT 8:58 PM EDT
Moon 1:54 PM EDT (9/30) 11:38 PM EDT (9/30)
Length of Visible Light 12h 44m
Length of Day
11h 45m
Tomorrow will be 3m 7s shorter.
Waxing Crescent, 41% of the Moon is Illuminated
Today
Waxing Crescent
Oct 1
First Quarter
Oct 8
Full
Oct 15
Last Quarter
Oct 23
New

Today's Extremes

State Highs State Lows

Community

WunderPhotos

Upload Photos

1,757,792 photos uploaded!

Nearby

Air Quality

  Air Quality AQ Index Pollutant
Yesterday Good
OZONE
Yesterday Good
PM2.5
Current Good
PM2.5
Current Good
OZONE
Tuesday Good
OZONE
Tuesday Good
PM2.5
Wednesday Good
OZONE
Wednesday Good
PM2.5
Thursday Good
OZONE
Thursday Good
PM2.5
Friday Good
OZONE
Friday Good
PM2.5
Saturday Good
OZONE
Saturday Good
PM2.5

Snow Depth

Station Depth Elevation
No new snow has been reported.

Earthquake Activity

City Distance Mag. Time & Date
No recent earthquake activity has been reported nearby.
Minimum magnitude displayed is 2.5.

Coastal Water Temperatures

Place Temperature
Mackinaw City, MI 61.0 °F
Port Inland, MI 61.0 °F

Nearby Weather Stations